Terminal Aerodrome Forecast
Issued by NWS Cleveland, OH

Home | Current Version | Previous Version | Graphics & Text | Print | Product List | Glossary On
Versions: 1 2 3 4 5 6 7 8 9 10 11 12 13 14 15 16 17 18 19 20 21 22 23 24 25 26
860
FTUS41 KCLE 220212 AAA
TAFMFD
TAF AMD
KMFD 220212Z 2202/2224 17008KT P6SM OVC100
      TEMPO 2202/2204 5SM SHRA OVC035
     FM220700 12003KT 3SM BR OVC025
      TEMPO 2209/2213 1SM BR BKN006
     FM221600 08004KT 6SM HZ BKN035=

USA.gov is the U.S. government's official web portal to all federal, state and local government web resources and services.